Porter, Oklahoma
Current Conditions -  °F | °C
As of 3:53 AM on Thursday 29 Jan 2015 (Local Time) from KMKO Reporting Station
Clear Clear  
Wind Chill: 55°   Ceiling: Unl
Heat Index: 55°   Visibility: 10mi
Dew Point: 35°   Wind: 9mph
Humidity: 47%   Direction: 340°NNW
Pressure: 30.06"   Gusts: NA
Location:  35.87°N, 95.52°W
Report Text: KMKO 290953Z AUTO 34008KT 10SM CLR 13/02 A3006 RMK AO2 SLP174 T01280017
Loading
Personal Weather Stations






























Interactive Weather Map New forecast layout! Learn more

10-Day Weather Forecast

Advertisements
Track Severe Weather on mobile